createdAt,value
2022-11-05T00:00:10.349Z,1.34
2022-11-05T00:01:10.252Z,1.48
2022-11-05T00:02:10.636Z,1.48
2022-11-05T00:03:10.634Z,1.16
2022-11-05T00:04:10.382Z,1.11
2022-11-05T00:05:10.812Z,1.11
2022-11-05T00:06:10.250Z,1.52
2022-11-05T00:07:10.688Z,1.52
2022-11-05T00:08:09.993Z,1.1
2022-11-05T00:09:10.453Z,1.1
2022-11-05T00:10:10.779Z,0.83
2022-11-05T00:11:12.617Z,0.98
2022-11-05T00:12:10.506Z,0.98
2022-11-05T00:13:11.697Z,1.05
2022-11-05T00:14:10.375Z,1.05
2022-11-05T00:15:10.890Z,1.31
2022-11-05T00:16:10.346Z,1.31
2022-11-05T00:17:10.678Z,1.56
2022-11-05T00:18:10.088Z,1.56
2022-11-05T00:19:10.367Z,1
2022-11-05T00:20:10.408Z,1
2022-11-05T00:21:10.887Z,1.77
2022-11-05T00:22:10.203Z,1.77
2022-11-05T00:23:11.318Z,1.24
2022-11-05T00:24:09.965Z,1.24
2022-11-05T00:25:10.316Z,0.99
2022-11-05T00:26:10.735Z,0.99
2022-11-05T00:27:10.154Z,1.01
2022-11-05T00:28:10.513Z,1.14
2022-11-05T00:29:10.957Z,1.14
2022-11-05T00:30:10.383Z,0.99
2022-11-05T00:31:10.872Z,0.99
2022-11-05T00:32:10.273Z,1.02
2022-11-05T00:33:11.403Z,1.02
2022-11-05T00:34:10.065Z,0.89
2022-11-05T00:35:10.294Z,1.66
2022-11-05T00:36:10.607Z,1.66
2022-11-05T00:37:09.961Z,1.31
2022-11-05T00:38:10.318Z,1.31
2022-11-05T00:39:10.642Z,0.69
2022-11-05T00:40:10.031Z,0.69
2022-11-05T00:41:10.476Z,0.86
2022-11-05T00:42:10.799Z,1.01
2022-11-05T00:43:10.849Z,1.48
2022-11-05T00:44:10.607Z,1.48
2022-11-05T00:45:10.923Z,1.06
2022-11-05T00:46:10.229Z,0.79
2022-11-05T00:47:10.510Z,0.79
2022-11-05T00:48:10.908Z,0.92
2022-11-05T00:49:10.303Z,0.94
2022-11-05T00:50:11.016Z,0.94
2022-11-05T00:51:10.200Z,1.16
2022-11-05T00:52:10.594Z,1.16
2022-11-05T00:53:10.480Z,0.88
2022-11-05T00:54:10.545Z,0.88
2022-11-05T00:55:10.137Z,0.89
2022-11-05T00:56:10.518Z,0.89
2022-11-05T00:57:10.295Z,0.89
2022-11-05T00:58:10.829Z,0.67
2022-11-05T00:59:10.191Z,0.9
2022-11-05T01:00:10.086Z,0.9
2022-11-05T01:01:10.675Z,0.91
2022-11-05T01:02:11.041Z,0.91
2022-11-05T01:03:11.633Z,0.72
2022-11-05T01:04:10.110Z,0.72
2022-11-05T01:05:10.578Z,0.72
2022-11-05T01:06:10.154Z,1.19
2022-11-05T01:07:10.469Z,1.19
2022-11-05T01:08:10.755Z,0.81
2022-11-05T01:09:10.190Z,0.81
2022-11-05T01:10:10.523Z,1.08
2022-11-05T01:11:10.002Z,1.08
2022-11-05T01:12:10.272Z,0.85
2022-11-05T01:13:15.231Z,1.63
2022-11-05T01:14:10.066Z,1.63
2022-11-05T01:15:10.378Z,0.95
2022-11-05T01:16:10.700Z,0.95
2022-11-05T01:17:10.537Z,0.95
2022-11-05T01:18:10.141Z,0.95
2022-11-05T01:19:10.455Z,1.09
2022-11-05T01:20:10.835Z,1.92
2022-11-05T01:21:10.299Z,1.92
2022-11-05T01:22:10.673Z,1.21
2022-11-05T01:23:15.936Z,1.1
2022-11-05T01:24:10.285Z,1.1
2022-11-05T01:25:10.659Z,0.82
2022-11-05T01:26:10.028Z,0.82
2022-11-05T01:27:10.358Z,0.87
2022-11-05T01:28:10.527Z,0.87
2022-11-05T01:29:10.977Z,1.35
2022-11-05T01:30:10.232Z,1.23
2022-11-05T01:31:10.694Z,1.23
2022-11-05T01:32:10.031Z,2.09
2022-11-05T01:33:11.189Z,2.09
2022-11-05T01:34:10.917Z,0.96
2022-11-05T01:35:10.317Z,0.96
2022-11-05T01:36:10.659Z,0.55
2022-11-05T01:37:10.845Z,0.84
2022-11-05T01:38:10.296Z,0.84
2022-11-05T01:39:10.594Z,1.13
2022-11-05T01:40:10.036Z,1.31
2022-11-05T01:41:10.354Z,0.86
2022-11-05T01:42:10.815Z,0.86
2022-11-05T01:43:10.694Z,1.14
2022-11-05T01:44:10.489Z,0.69
2022-11-05T01:45:10.929Z,0.69
2022-11-05T01:46:10.280Z,1.17
2022-11-05T01:47:10.711Z,1.49
2022-11-05T01:48:10.078Z,1.49
2022-11-05T01:49:10.391Z,1.02
2022-11-05T01:50:10.766Z,1.02
2022-11-05T01:51:10.199Z,1.09
2022-11-05T01:52:10.532Z,1.09
2022-11-05T01:53:11.652Z,1.19
2022-11-05T01:54:10.493Z,1.38
2022-11-05T01:55:10.601Z,1.38
2022-11-05T01:56:09.936Z,1.04
2022-11-05T01:57:10.350Z,1.04
2022-11-05T01:58:10.677Z,0.84
2022-11-05T01:59:10.033Z,0.84
2022-11-05T02:00:10.372Z,1.22
2022-11-05T02:01:10.658Z,1.22
2022-11-05T02:02:10.435Z,1.24
2022-11-05T02:03:11.050Z,1.24
2022-11-05T02:04:10.812Z,0.94
2022-11-05T02:05:10.309Z,0.99
2022-11-05T02:06:10.709Z,0.99
2022-11-05T02:07:10.964Z,0.79
2022-11-05T02:08:10.325Z,1.09
2022-11-05T02:09:10.705Z,1.09
2022-11-05T02:10:10.164Z,1.25
2022-11-05T02:11:10.317Z,1.22
2022-11-05T02:12:10.650Z,1.22
2022-11-05T02:13:10.607Z,1
2022-11-05T02:14:10.454Z,1
2022-11-05T02:15:10.850Z,0.79
2022-11-05T02:16:10.277Z,0.79
2022-11-05T02:17:10.655Z,1.15
2022-11-05T02:18:09.986Z,2
2022-11-05T02:19:10.480Z,2
2022-11-05T02:20:10.044Z,1.34
2022-11-05T02:21:10.698Z,1.34
2022-11-05T02:22:10.060Z,0.76
2022-11-05T02:23:11.146Z,0.76
2022-11-05T02:24:10.868Z,1.19
2022-11-05T02:25:10.231Z,1.48
2022-11-05T02:26:10.779Z,1.48
2022-11-05T02:27:10.980Z,0.61
2022-11-05T02:28:10.288Z,0.61
2022-11-05T02:29:10.681Z,2.95
2022-11-05T02:30:10.014Z,2.95
2022-11-05T02:31:10.339Z,1.23
2022-11-05T02:32:10.738Z,0.94
2022-11-05T02:33:10.737Z,0.94
2022-11-05T02:34:10.344Z,0.66
2022-11-05T02:35:10.816Z,0.98
2022-11-05T02:36:10.176Z,0.98
2022-11-05T02:37:10.429Z,0.95
2022-11-05T02:38:10.791Z,0.95
2022-11-05T02:39:10.163Z,1.04
2022-11-05T02:40:10.443Z,1.04
2022-11-05T02:41:10.739Z,1.19
2022-11-05T02:42:10.056Z,1.15
2022-11-05T02:43:10.916Z,1.15
2022-11-05T02:44:10.765Z,1.45
2022-11-05T02:45:10.179Z,1.45
2022-11-05T02:46:10.570Z,0.96
2022-11-05T02:47:17.035Z,0.96
2022-11-05T02:48:10.332Z,1.26
2022-11-05T02:49:10.718Z,1.01
2022-11-05T02:50:10.034Z,1.01
2022-11-05T02:51:10.450Z,1
2022-11-05T02:52:10.675Z,1
2022-11-05T02:53:10.609Z,1.61
2022-11-05T02:54:10.511Z,1.61
2022-11-05T02:55:10.862Z,1.92
2022-11-05T02:56:10.247Z,1.77
2022-11-05T02:57:10.553Z,1.77
2022-11-05T02:58:10.923Z,1.13
2022-11-05T02:59:10.279Z,1.13
2022-11-05T03:00:10.594Z,1.22
2022-11-05T03:01:10.114Z,0.92
2022-11-05T03:02:10.680Z,0.92
2022-11-05T03:03:11.288Z,1.12
2022-11-05T03:04:10.044Z,1.12
2022-11-05T03:05:10.428Z,0.79
2022-11-05T03:06:10.873Z,1.54
2022-11-05T03:07:10.176Z,1.54
2022-11-05T03:08:10.593Z,1.71
2022-11-05T03:09:10.954Z,1.71
2022-11-05T03:10:10.337Z,1.92
2022-11-05T03:11:10.671Z,1.92
2022-11-05T03:12:09.995Z,1.12
2022-11-05T03:13:10.855Z,0.96
2022-11-05T03:14:10.842Z,0.96
2022-11-05T03:15:10.208Z,1.06
2022-11-05T03:16:10.554Z,1.06
2022-11-05T03:17:10.838Z,1.07
2022-11-05T03:18:10.257Z,1.07
2022-11-05T03:19:10.672Z,1.25
2022-11-05T03:20:11.007Z,1.32
2022-11-05T03:21:10.342Z,1.32
2022-11-05T03:22:10.632Z,1.6
2022-11-05T03:23:11.605Z,1.6
2022-11-05T03:24:10.232Z,1.06
2022-11-05T03:25:10.586Z,1.06
2022-11-05T03:26:11.001Z,0.72
2022-11-05T03:27:10.291Z,1.48
2022-11-05T03:28:10.666Z,1.48
2022-11-05T03:29:10.086Z,1.48
2022-11-05T03:30:10.522Z,0.89
2022-11-05T03:31:10.840Z,0.89
2022-11-05T03:32:10.152Z,0.93
2022-11-05T03:33:11.222Z,0.93
2022-11-05T03:34:10.750Z,1.15
2022-11-05T03:35:10.103Z,1.15
2022-11-05T03:36:10.501Z,1.1
2022-11-05T03:37:10.838Z,1.42
2022-11-05T03:38:10.142Z,1.42
2022-11-05T03:39:10.526Z,0.98
2022-11-05T03:40:10.970Z,0.98
2022-11-05T03:41:10.354Z,1.42
2022-11-05T03:42:10.605Z,1.42
2022-11-05T03:43:10.719Z,0.74
2022-11-05T03:44:10.462Z,1.18
2022-11-05T03:45:10.796Z,1.18
2022-11-05T03:46:10.127Z,1.75
2022-11-05T03:47:10.510Z,1.75
2022-11-05T03:48:10.988Z,1.12
2022-11-05T03:49:10.302Z,1.12
2022-11-05T03:50:10.672Z,1.62
2022-11-05T03:51:10.034Z,0.84
2022-11-05T03:52:10.391Z,0.84
2022-11-05T03:53:11.461Z,1.26
2022-11-05T03:54:10.111Z,0.95
2022-11-05T03:55:10.348Z,0.95
2022-11-05T03:56:10.768Z,1.15
2022-11-05T03:57:10.190Z,1.15
2022-11-05T03:58:10.531Z,1.44
2022-11-05T03:59:10.976Z,1.44
2022-11-05T04:00:10.345Z,1.35
2022-11-05T04:01:10.709Z,1.16
2022-11-05T04:02:10.357Z,1.16
2022-11-05T04:03:10.932Z,1.44
2022-11-05T04:04:10.699Z,1.44
2022-11-05T04:05:10.053Z,1.06
2022-11-05T04:06:10.392Z,1.06
2022-11-05T04:07:10.742Z,1.22
2022-11-05T04:08:16.196Z,1.24
2022-11-05T04:09:10.559Z,1.24
2022-11-05T04:10:10.923Z,1.08
2022-11-05T04:11:10.246Z,1.08
2022-11-05T04:12:10.500Z,1.15
2022-11-05T04:13:11.732Z,1.15
2022-11-05T04:14:10.267Z,0.85
2022-11-05T04:15:10.577Z,0.82
2022-11-05T04:16:10.865Z,0.82
2022-11-05T04:17:10.627Z,1.3
2022-11-05T04:18:11.087Z,1.21
2022-11-05T04:19:10.312Z,1.21
2022-11-05T04:20:10.724Z,1.76
2022-11-05T04:21:10.161Z,1.76
2022-11-05T04:22:10.492Z,1.24
2022-11-05T04:23:11.392Z,1.24
2022-11-05T04:24:10.149Z,0.9
2022-11-05T04:25:10.454Z,0.87
2022-11-05T04:26:10.886Z,0.87
2022-11-05T04:27:10.172Z,0.92
2022-11-05T04:28:10.473Z,0.92
2022-11-05T04:29:10.876Z,1.3
2022-11-05T04:30:10.209Z,1.3
2022-11-05T04:31:10.670Z,0.88
2022-11-05T04:32:10.065Z,1.08
2022-11-05T04:33:11.004Z,1.08
2022-11-05T04:34:10.852Z,1.12
2022-11-05T04:35:10.094Z,1.12
2022-11-05T04:36:10.491Z,0.87
2022-11-05T04:37:10.759Z,0.87
2022-11-05T04:38:10.097Z,1.34
2022-11-05T04:39:10.511Z,0.92
2022-11-05T04:40:10.919Z,0.92
2022-11-05T04:41:10.218Z,1.45
2022-11-05T04:42:10.592Z,1.45
2022-11-05T04:43:17.328Z,1.05
2022-11-05T04:44:10.310Z,1.05
2022-11-05T04:45:10.668Z,0.88
2022-11-05T04:46:10.486Z,1.29
2022-11-05T04:47:10.254Z,1.29
2022-11-05T04:48:10.541Z,1.76
2022-11-05T04:49:10.859Z,1.76
2022-11-05T04:50:10.388Z,1.08
2022-11-05T04:51:10.568Z,1.08
2022-11-05T04:52:10.666Z,1.02
2022-11-05T04:53:11.312Z,1.31
2022-11-05T04:54:09.989Z,1.31
2022-11-05T04:55:10.426Z,1.14
2022-11-05T04:56:10.847Z,0.91
2022-11-05T04:57:10.133Z,0.91
2022-11-05T04:58:10.698Z,1.08
2022-11-05T04:59:10.120Z,1.08
2022-11-05T05:00:10.646Z,0.91
2022-11-05T05:01:11.201Z,0.91
2022-11-05T05:02:10.747Z,0.94
2022-11-05T05:03:11.617Z,0.73
2022-11-05T05:04:10.307Z,0.73
2022-11-05T05:05:10.712Z,0.83
2022-11-05T05:06:11.091Z,0.83
2022-11-05T05:07:10.435Z,2.45
2022-11-05T05:08:10.775Z,2.45
2022-11-05T05:09:10.052Z,1.99
2022-11-05T05:10:10.420Z,0.97
2022-11-05T05:11:10.810Z,0.97
2022-11-05T05:12:10.213Z,0.71
2022-11-05T05:13:11.111Z,0.76
2022-11-05T05:14:10.885Z,0.76
2022-11-05T05:15:10.297Z,0.69
2022-11-05T05:16:10.628Z,0.69
2022-11-05T05:17:10.171Z,0.76
2022-11-05T05:18:10.422Z,0.76
2022-11-05T05:19:10.680Z,1.45
2022-11-05T05:20:10.137Z,1.4
2022-11-05T05:21:10.549Z,1.4
2022-11-05T05:22:10.928Z,0.91
2022-11-05T05:23:10.919Z,0.91
2022-11-05T05:24:10.649Z,1.38
2022-11-05T05:25:11.022Z,1.38
2022-11-05T05:26:10.339Z,1.4
2022-11-05T05:27:10.593Z,1.35
2022-11-05T05:28:10.083Z,1.35
2022-11-05T05:29:10.490Z,1.61
2022-11-05T05:30:10.965Z,1.61
2022-11-05T05:31:10.336Z,2.43
2022-11-05T05:32:10.810Z,2.43
2022-11-05T05:33:10.828Z,1.55
2022-11-05T05:34:10.492Z,1.98
2022-11-05T05:35:10.941Z,1.98
2022-11-05T05:36:13.570Z,2.36
2022-11-05T05:37:10.616Z,2.36
2022-11-05T05:38:10.273Z,1.04
2022-11-05T05:39:10.380Z,1.04
2022-11-05T05:40:10.726Z,1.51
2022-11-05T05:41:10.072Z,1.59
2022-11-05T05:42:10.451Z,1.59
2022-11-05T05:43:11.182Z,0.99
2022-11-05T05:44:10.115Z,0.86
2022-11-05T05:45:10.547Z,1.55
2022-11-05T05:46:10.936Z,1.55
2022-11-05T05:47:10.305Z,0.98
2022-11-05T05:48:10.596Z,1.66
2022-11-05T05:49:14.517Z,1.66
2022-11-05T05:50:10.255Z,1.59
2022-11-05T05:51:10.536Z,1.79
2022-11-05T05:52:11.004Z,1.79
2022-11-05T05:53:10.881Z,1.23
2022-11-05T05:54:10.821Z,1.23
2022-11-05T05:55:10.119Z,1.16
2022-11-05T05:56:10.477Z,1.16
2022-11-05T05:57:10.831Z,1.42
2022-11-05T05:58:10.153Z,1.04
2022-11-05T05:59:10.451Z,1.04
2022-11-05T06:00:10.823Z,1.67
2022-11-05T06:01:11.888Z,1.65
2022-11-05T06:02:10.839Z,1.88
2022-11-05T06:03:10.589Z,1.88
2022-11-05T06:04:10.792Z,1.18
2022-11-05T06:05:10.124Z,1.19
2022-11-05T06:06:10.499Z,1.19
2022-11-05T06:07:10.888Z,1.11
2022-11-05T06:08:10.309Z,1.71
2022-11-05T06:09:10.765Z,1.71
2022-11-05T06:10:10.360Z,0.84
2022-11-05T06:11:10.852Z,0.84
2022-11-05T06:12:09.956Z,1.09
2022-11-05T06:13:10.776Z,1.09
2022-11-05T06:14:10.927Z,1.48
2022-11-05T06:15:10.305Z,1.48
2022-11-05T06:16:10.736Z,1.09
2022-11-05T06:17:10.164Z,1.09
2022-11-05T06:18:10.511Z,1.54
2022-11-05T06:19:10.827Z,1.08
2022-11-05T06:20:10.183Z,1.08
2022-11-05T06:21:10.596Z,1.48
2022-11-05T06:22:10.032Z,2.61
2022-11-05T06:23:11.205Z,2.61
2022-11-05T06:24:10.904Z,2.16
2022-11-05T06:25:10.258Z,2.16
2022-11-05T06:26:10.807Z,2.81
2022-11-05T06:27:10.096Z,2.81
2022-11-05T06:28:10.536Z,2.42
2022-11-05T06:29:10.871Z,1.57
2022-11-05T06:30:10.411Z,1.57
2022-11-05T06:31:10.053Z,1.52
2022-11-05T06:32:10.384Z,1.52
2022-11-05T06:33:11.332Z,1.08
2022-11-05T06:34:10.059Z,1.08
2022-11-05T06:35:10.446Z,1.43
2022-11-05T06:36:10.794Z,1.46
2022-11-05T06:37:10.148Z,1.46
2022-11-05T06:38:10.485Z,0.86
2022-11-05T06:39:10.883Z,1.81
2022-11-05T06:40:10.175Z,1.81
2022-11-05T06:41:12.725Z,1.55
2022-11-05T06:42:20.823Z,1.55
2022-11-05T06:43:10.569Z,1.34
2022-11-05T06:44:10.443Z,1.34
2022-11-05T06:45:10.972Z,0.76
2022-11-05T06:46:10.269Z,0.96
2022-11-05T06:47:10.702Z,0.96
2022-11-05T06:48:10.066Z,0.98
2022-11-05T06:49:10.471Z,0.98
2022-11-05T06:50:10.835Z,1.11
2022-11-05T06:51:10.221Z,1.11
2022-11-05T06:52:10.583Z,1.36
2022-11-05T06:53:11.673Z,2
2022-11-05T06:54:10.192Z,2
2022-11-05T06:55:10.500Z,1.15
2022-11-05T06:56:10.853Z,1.01
2022-11-05T06:57:10.272Z,1.01
2022-11-05T06:58:10.603Z,0.91
2022-11-05T06:59:10.923Z,0.91
2022-11-05T07:00:10.484Z,0.67
2022-11-05T07:01:10.966Z,0.67
2022-11-05T07:02:11.134Z,1.33
2022-11-05T07:03:11.090Z,0.88
2022-11-05T07:04:10.807Z,0.88
2022-11-05T07:05:10.141Z,0.66
2022-11-05T07:06:10.146Z,0.66
2022-11-05T07:07:10.576Z,0.85
2022-11-05T07:08:10.721Z,0.85
2022-11-05T07:09:10.135Z,1.04
2022-11-05T07:10:10.452Z,1.49
2022-11-05T07:11:10.789Z,1.33
2022-11-05T07:12:10.146Z,1.33
2022-11-05T07:13:11.478Z,1.31
2022-11-05T07:14:10.761Z,1.26
2022-11-05T07:15:10.127Z,1.26
2022-11-05T07:16:10.426Z,1.38
2022-11-05T07:17:10.907Z,0.62
2022-11-05T07:18:10.371Z,0.62
2022-11-05T07:19:10.747Z,0.75
2022-11-05T07:20:10.066Z,0.75
2022-11-05T07:21:10.533Z,1.53
2022-11-05T07:22:10.795Z,1.53
2022-11-05T07:23:10.666Z,1.33
2022-11-05T07:24:10.521Z,1.58
2022-11-05T07:25:10.854Z,1.58
2022-11-05T07:26:10.263Z,1.12
2022-11-05T07:27:10.590Z,1.35
2022-11-05T07:28:10.964Z,1.35
2022-11-05T07:29:10.370Z,1.08
2022-11-05T07:30:11.102Z,1.08
2022-11-05T07:31:10.213Z,0.91
2022-11-05T07:32:10.603Z,0.91
2022-11-05T07:33:11.840Z,1.16
2022-11-05T07:34:10.292Z,1.32
2022-11-05T07:35:10.582Z,1.32
2022-11-05T07:36:10.953Z,1.22
2022-11-05T07:37:10.500Z,1.22
2022-11-05T07:38:10.898Z,1.13
2022-11-05T07:39:10.214Z,1.13
2022-11-05T07:40:10.566Z,1.51
2022-11-05T07:41:10.999Z,1.33
2022-11-05T07:42:10.350Z,1.33
2022-11-05T07:43:11.324Z,1.31
2022-11-05T07:44:10.504Z,1.16
2022-11-05T07:45:10.474Z,1.21
2022-11-05T07:46:15.909Z,1.21
2022-11-05T07:47:10.016Z,1.29
2022-11-05T07:48:10.416Z,1.48
2022-11-05T07:49:10.800Z,1.48
2022-11-05T07:50:10.966Z,1.34
2022-11-05T07:51:10.387Z,1.67
2022-11-05T07:52:10.708Z,1.67
2022-11-05T07:53:10.530Z,1.42
2022-11-05T07:54:10.436Z,1.42
2022-11-05T07:55:10.833Z,0.92
2022-11-05T07:56:10.193Z,0.92
2022-11-05T07:57:10.491Z,1.34
2022-11-05T07:58:10.817Z,1.22
2022-11-05T07:59:10.240Z,1.22
2022-11-05T08:00:10.634Z,1.16
2022-11-05T08:01:11.278Z,1.16
2022-11-05T08:02:11.274Z,1.64
2022-11-05T08:03:11.446Z,1.64
2022-11-05T08:04:10.152Z,1.3
2022-11-05T08:05:10.566Z,1.87
2022-11-05T08:06:10.984Z,1.87
2022-11-05T08:07:10.541Z,1.64
2022-11-05T08:08:10.920Z,1.64
2022-11-05T08:09:10.291Z,1.89
2022-11-05T08:10:10.680Z,1.89
2022-11-05T08:11:11.032Z,1.08
2022-11-05T08:12:10.410Z,1.24
2022-11-05T08:13:10.863Z,1.24
2022-11-05T08:14:10.579Z,1.49
2022-11-05T08:15:11.000Z,1.49
2022-11-05T08:16:10.416Z,3.19
2022-11-05T08:17:10.787Z,3.19
2022-11-05T08:18:11.044Z,2.16
2022-11-05T08:19:10.349Z,1.13
2022-11-05T08:20:10.752Z,1.13
2022-11-05T08:21:10.138Z,2.07
2022-11-05T08:22:10.610Z,1.11
2022-11-05T08:23:11.650Z,1.11
2022-11-05T08:24:10.355Z,1.63
2022-11-05T08:25:10.748Z,1.63
2022-11-05T08:26:10.111Z,2.14
2022-11-05T08:27:10.421Z,2.14
2022-11-05T08:28:10.710Z,1.16
2022-11-05T08:29:10.095Z,2.56
2022-11-05T08:30:10.455Z,2.56
2022-11-05T08:31:10.882Z,2.94
2022-11-05T08:32:10.239Z,2.94
2022-11-05T08:33:11.302Z,1.71
2022-11-05T08:34:11.047Z,1.71
2022-11-05T08:35:10.355Z,2.03
2022-11-05T08:36:10.738Z,2
2022-11-05T08:37:10.051Z,2
2022-11-05T08:38:10.437Z,1.24
2022-11-05T08:39:17.841Z,1.24
2022-11-05T08:40:10.986Z,2.65
2022-11-05T08:41:10.491Z,2.65
2022-11-05T08:42:10.892Z,1.74
2022-11-05T08:43:10.717Z,1.48
2022-11-05T08:44:10.660Z,1.48
2022-11-05T08:45:10.193Z,2.36
2022-11-05T08:46:10.606Z,1.71
2022-11-05T08:47:10.895Z,1.71
2022-11-05T08:48:10.219Z,1.59
2022-11-05T08:49:10.631Z,1.59
2022-11-05T08:50:11.111Z,1.71
2022-11-05T08:51:10.335Z,1.71
2022-11-05T08:52:10.762Z,2.78
2022-11-05T08:53:10.728Z,1.84
2022-11-05T08:54:10.768Z,1.84
2022-11-05T08:55:10.052Z,1.13
2022-11-05T08:56:10.447Z,1.13
2022-11-05T08:57:10.860Z,1.65
2022-11-05T08:58:10.197Z,1.65
2022-11-05T08:59:10.594Z,1.25
2022-11-05T09:00:10.859Z,1.22
2022-11-05T09:01:10.528Z,1.22
2022-11-05T09:02:11.202Z,2.79
2022-11-05T09:03:11.104Z,2.79
2022-11-05T09:04:10.641Z,1.41
2022-11-05T09:05:10.065Z,1.41
2022-11-05T09:06:10.393Z,2.18
2022-11-05T09:07:10.736Z,2.18
2022-11-05T09:08:10.183Z,2.56
2022-11-05T09:09:10.604Z,2.56
2022-11-05T09:10:10.010Z,1.25
2022-11-05T09:11:10.854Z,1.08
2022-11-05T09:12:15.191Z,1.08
2022-11-05T09:13:18.645Z,1.6
2022-11-05T09:14:10.175Z,2.45
2022-11-05T09:15:10.607Z,2.45
2022-11-05T09:16:10.980Z,1.89
2022-11-05T09:17:10.440Z,2.35
2022-11-05T09:18:10.751Z,2.35
2022-11-05T09:19:10.081Z,2
2022-11-05T09:20:10.442Z,2
2022-11-05T09:21:10.855Z,2.65
2022-11-05T09:22:10.331Z,2.65
2022-11-05T09:23:11.255Z,1.32
2022-11-05T09:24:11.119Z,2.01
2022-11-05T09:25:10.504Z,2.01
2022-11-05T09:26:11.198Z,1.26
2022-11-05T09:27:10.584Z,1.26
2022-11-05T09:28:13.478Z,1.55
2022-11-05T09:29:16.327Z,1.55
2022-11-05T09:30:10.669Z,2.88
2022-11-05T09:31:11.050Z,2.24
2022-11-05T09:32:10.279Z,2.24
2022-11-05T09:33:11.013Z,1.73
2022-11-05T09:34:10.782Z,1.73
2022-11-05T09:35:10.144Z,2.22
2022-11-05T09:36:10.638Z,2.22
2022-11-05T09:37:11.016Z,1.92
2022-11-05T09:38:10.611Z,2.42
2022-11-05T09:39:10.815Z,2.42
2022-11-05T09:40:10.209Z,1.44
2022-11-05T09:41:10.610Z,1.62
2022-11-05T09:42:10.954Z,1.62
2022-11-05T09:43:10.820Z,1.89
2022-11-05T09:44:10.655Z,1.89
2022-11-05T09:45:11.096Z,1.12
2022-11-05T09:46:10.508Z,1.12
2022-11-05T09:47:10.855Z,1.82
2022-11-05T09:48:10.242Z,2.16
2022-11-05T09:49:10.670Z,2.16
2022-11-05T09:50:10.984Z,1.62
2022-11-05T09:51:10.357Z,1.62
2022-11-05T09:52:09.839Z,1.66
2022-11-05T09:53:10.854Z,1.66
2022-11-05T09:54:10.743Z,2.16
2022-11-05T09:55:11.059Z,2.05
2022-11-05T09:56:10.681Z,2.05
2022-11-05T09:57:11.249Z,1.62
2022-11-05T09:58:10.351Z,1.62
2022-11-05T09:59:10.905Z,1.41
2022-11-05T10:00:10.373Z,1.41
2022-11-05T10:01:10.923Z,1.31
2022-11-05T10:02:10.771Z,1.47
2022-11-05T10:03:10.629Z,1.47
2022-11-05T10:04:10.573Z,2.23
2022-11-05T10:05:12.568Z,1.99
2022-11-05T10:06:10.416Z,1.99
2022-11-05T10:07:10.755Z,2.95
2022-11-05T10:08:10.178Z,2.95
2022-11-05T10:09:10.572Z,2.44
2022-11-05T10:10:11.023Z,2.44
2022-11-05T10:11:10.272Z,2.09
2022-11-05T10:12:10.769Z,1.87
2022-11-05T10:13:11.635Z,1.87
2022-11-05T10:14:10.354Z,2.97
2022-11-05T10:15:10.820Z,2.97
2022-11-05T10:16:10.270Z,1.63
2022-11-05T10:17:10.603Z,1.63
2022-11-05T10:18:11.055Z,1.85
2022-11-05T10:19:10.387Z,2
2022-11-05T10:20:10.795Z,2
2022-11-05T10:21:10.103Z,1.58
2022-11-05T10:22:10.468Z,1.58
2022-11-05T10:23:11.346Z,1.88
2022-11-05T10:24:10.119Z,1.88
2022-11-05T10:25:10.487Z,2.19
2022-11-05T10:26:10.995Z,1.47
2022-11-05T10:27:10.271Z,1.47
2022-11-05T10:28:10.614Z,2.52
2022-11-05T10:29:11.030Z,2.52
2022-11-05T10:30:10.585Z,1.76
2022-11-05T10:31:10.917Z,1.76
2022-11-05T10:32:10.195Z,1.62
2022-11-05T10:33:11.095Z,2.42
2022-11-05T10:34:10.866Z,2.42
2022-11-05T10:35:10.240Z,1.7
2022-11-05T10:36:10.581Z,1.44
2022-11-05T10:37:10.966Z,1.44
2022-11-05T10:38:10.362Z,2.22
2022-11-05T10:39:10.758Z,2.22
2022-11-05T10:40:10.180Z,2.45
2022-11-05T10:41:10.483Z,2.45
2022-11-05T10:42:10.867Z,2.57
2022-11-05T10:43:10.676Z,1.84
2022-11-05T10:44:12.426Z,1.84
2022-11-05T10:45:10.821Z,1.51
2022-11-05T10:46:10.140Z,1.51
2022-11-05T10:47:10.525Z,1.49
2022-11-05T10:48:10.902Z,1.49
2022-11-05T10:49:10.262Z,2.08
2022-11-05T10:50:10.644Z,2.08
2022-11-05T10:51:10.928Z,1.29
2022-11-05T10:52:10.238Z,1.29
2022-11-05T10:53:11.134Z,1.78
2022-11-05T10:54:10.997Z,1.51
2022-11-05T10:55:10.293Z,1.51
2022-11-05T10:56:10.668Z,2.03
2022-11-05T10:57:11.101Z,1.55
2022-11-05T10:58:10.487Z,1.55
2022-11-05T10:59:14.362Z,1.51
2022-11-05T11:00:10.285Z,1.76
2022-11-05T11:01:10.764Z,1.76
2022-11-05T11:02:11.176Z,1.55
2022-11-05T11:03:10.882Z,1.55
2022-11-05T11:04:10.656Z,1.46
2022-11-05T11:05:11.013Z,1.46
2022-11-05T11:06:10.447Z,1.58
2022-11-05T11:07:10.756Z,2.37
2022-11-05T11:08:10.120Z,2.37
2022-11-05T11:09:10.498Z,1.99
2022-11-05T11:10:10.898Z,1.99
2022-11-05T11:11:10.183Z,1.75
2022-11-05T11:12:10.650Z,1.75
2022-11-05T11:13:11.603Z,2.1
2022-11-05T11:14:11.001Z,2.24
2022-11-05T11:15:10.972Z,2.24
2022-11-05T11:16:10.487Z,1.1
2022-11-05T11:17:10.231Z,1.1
2022-11-05T11:18:10.630Z,1.18
2022-11-05T11:19:11.018Z,1.18
2022-11-05T11:20:10.482Z,1.99
2022-11-05T11:21:10.983Z,1.67
2022-11-05T11:22:10.253Z,1.67
2022-11-05T11:23:10.966Z,1.5
2022-11-05T11:24:10.948Z,1.5
2022-11-05T11:25:10.554Z,1.98
2022-11-05T11:26:10.943Z,1.98
2022-11-05T11:27:10.172Z,1.43
2022-11-05T11:28:10.496Z,1.65
2022-11-05T11:29:10.897Z,1.65
2022-11-05T11:30:10.421Z,1.15
2022-11-05T11:31:10.808Z,1.66
2022-11-05T11:32:10.183Z,1.66
2022-11-05T11:33:11.215Z,1.49
2022-11-05T11:34:10.884Z,1.49
2022-11-05T11:35:10.315Z,1.85
2022-11-05T11:36:10.668Z,1.85
2022-11-05T11:37:14.024Z,1.2
2022-11-05T11:38:10.333Z,1.46
2022-11-05T11:39:10.716Z,1.46
2022-11-05T11:40:12.350Z,1.16
2022-11-05T11:41:10.431Z,1.16
2022-11-05T11:42:10.798Z,0.75
2022-11-05T11:43:10.350Z,0.75
2022-11-05T11:44:10.550Z,1.41
2022-11-05T11:45:10.973Z,2.13
2022-11-05T11:46:16.944Z,2.13
2022-11-05T11:47:10.760Z,0.91
2022-11-05T11:48:10.114Z,0.91
2022-11-05T11:49:10.625Z,1.72
2022-11-05T11:50:11.028Z,1.72
2022-11-05T11:51:10.535Z,1.84
2022-11-05T11:52:10.925Z,1.48
2022-11-05T11:53:10.870Z,1.48
2022-11-05T11:54:10.671Z,1.47
2022-11-05T11:55:10.990Z,1.3
2022-11-05T11:56:10.298Z,1.3
2022-11-05T11:57:17.161Z,1.45
2022-11-05T11:58:10.883Z,1.45
2022-11-05T11:59:10.227Z,2.76
2022-11-05T12:00:11.853Z,2.76
2022-11-05T12:01:11.053Z,2.35
2022-11-05T12:02:10.749Z,1.18
2022-11-05T12:03:10.902Z,1.18
2022-11-05T12:04:10.159Z,2.05
2022-11-05T12:05:10.456Z,2.05
2022-11-05T12:06:10.903Z,1.42
2022-11-05T12:07:10.615Z,1.42
2022-11-05T12:08:10.905Z,1.19
2022-11-05T12:09:10.287Z,2.46
2022-11-05T12:10:10.657Z,2.46
2022-11-05T12:11:10.989Z,1.91
2022-11-05T12:12:10.454Z,1.09
2022-11-05T12:13:11.394Z,0.86
2022-11-05T12:14:10.131Z,0.86
2022-11-05T12:15:10.651Z,1.78
2022-11-05T12:16:11.043Z,1.81
2022-11-05T12:17:10.388Z,1.81
2022-11-05T12:18:10.809Z,1.08
2022-11-05T12:19:10.138Z,1.08
2022-11-05T12:20:10.593Z,1.05
2022-11-05T12:21:10.924Z,1.05
2022-11-05T12:22:10.377Z,1.75
2022-11-05T12:23:11.364Z,1.46
2022-11-05T12:24:11.062Z,1.46
2022-11-05T12:25:10.465Z,1.44
2022-11-05T12:26:10.903Z,1.59
2022-11-05T12:27:10.250Z,1.59
2022-11-05T12:28:10.570Z,1.28
2022-11-05T12:29:28.103Z,1.28
2022-11-05T12:30:10.343Z,1.36
2022-11-05T12:31:10.607Z,1.36
2022-11-05T12:32:10.929Z,1.72
2022-11-05T12:33:10.703Z,1.76
2022-11-05T12:34:10.705Z,1.76
2022-11-05T12:35:10.137Z,1.51
2022-11-05T12:36:10.594Z,1.51
2022-11-05T12:37:10.892Z,1.39
2022-11-05T12:38:10.396Z,1.39
2022-11-05T12:39:11.098Z,1.31
2022-11-05T12:40:10.436Z,1.58
2022-11-05T12:41:10.224Z,1.58
2022-11-05T12:42:10.571Z,1.04
2022-11-05T12:43:14.467Z,1.04
2022-11-05T12:44:10.435Z,1.15
2022-11-05T12:45:10.881Z,1.15
2022-11-05T12:46:10.257Z,2.34
2022-11-05T12:47:10.794Z,1.5
2022-11-05T12:48:11.009Z,1.5
2022-11-05T12:49:10.399Z,1.83
2022-11-05T12:50:10.924Z,1.95
2022-11-05T12:51:10.284Z,1.95
2022-11-05T12:52:10.701Z,2.27
2022-11-05T12:53:10.785Z,2.27
2022-11-05T12:54:10.853Z,2.44
2022-11-05T12:55:10.215Z,2.44
2022-11-05T12:56:10.780Z,1.64
2022-11-05T12:57:11.019Z,1.94
2022-11-05T12:58:10.376Z,1.94
2022-11-05T12:59:10.745Z,1.58
2022-11-05T13:00:11.133Z,1.58
2022-11-05T13:01:10.625Z,1.61
2022-11-05T13:02:11.016Z,1.67
2022-11-05T13:03:10.452Z,1.67
2022-11-05T13:04:10.833Z,1.16
2022-11-05T13:05:10.291Z,1.16
2022-11-05T13:06:10.918Z,1.18
2022-11-05T13:07:10.196Z,1.18
2022-11-05T13:08:10.655Z,1.56
2022-11-05T13:09:10.958Z,1.56
2022-11-05T13:10:10.388Z,0.94
2022-11-05T13:11:10.627Z,1.49
2022-11-05T13:12:11.003Z,1.49
2022-11-05T13:13:10.784Z,1.44
2022-11-05T13:14:10.804Z,0.98
2022-11-05T13:15:10.319Z,0.98
2022-11-05T13:16:10.771Z,1.38
2022-11-05T13:17:11.088Z,1.38
2022-11-05T13:18:10.440Z,0.74
2022-11-05T13:19:10.830Z,0.74
2022-11-05T13:20:17.262Z,0.86
2022-11-05T13:21:10.890Z,1.29